This is the latest recevied weather packets stored in our database for station/object OE-11144. If no packets are shown the sender has not sent any weather packets the latest 10 day(s).
| Time | Temp. | Humidity | Pressure | Rain* | Wind** | Luminosity | Snow |
|---|---|---|---|---|---|---|---|
| 1787888127 | 13.89° C | 97% | 1015.9 hPa | 0 mm | - | - | - |
| 1787887527 | 13.89° C | 97% | 1015.9 hPa | 0 mm | - | - | - |
| 1787886697 | 13.33° C | 96% | 1015.9 hPa | 0 mm | - | - | - |
| 1787886325 | 13.33° C | 96% | 1016 hPa | 0 mm | - | - | - |
| 1787885728 | 13.89° C | 96% | 1016 hPa | 0 mm | - | - | - |
| 1787884901 | 13.89° C | 96% | 1015.9 hPa | 0 mm | - | - | - |
| 1787884528 | 13.89° C | 96% | 1016.2 hPa | 0 mm | - | - | - |
| 1787883928 | 14.44° C | 96% | 1015.9 hPa | 0 mm | - | - | - |
| 1787883101 | 14.44° C | 96% | 1015.7 hPa | 0 mm | - | - | - |
| 1787882728 | 13.89° C | 96% | 1015.9 hPa | 0 mm | - | - | - |
| 1787881301 | 14.44° C | 97% | 1015.8 hPa | 0 mm | - | - | - |
| 1787880928 | 13.89° C | 96% | 1015.9 hPa | 0 mm | - | - | - |
| 1787880328 | 14.44° C | 95% | 1015.9 hPa | 0 mm | - | - | - |
| 1787879500 | 14.44° C | 96% | 1015.7 hPa | 0 mm | - | - | - |
| 1787879127 | 13.89° C | 97% | 1015.9 hPa | 0 mm | - | - | - |
| 1787878528 | 13.89° C | 96% | 1016.1 hPa | 0 mm | - | - | - |
| 1787877700 | 15° C | 97% | 1015.6 hPa | 0 mm | - | - | - |
| 1787877328 | 14.44° C | 96% | 1015.9 hPa | 0 mm | - | - | - |
| 1787876728 | 14.44° C | 96% | 1015.9 hPa | 0 mm | - | - | - |
| 1787875900 | 14.44° C | 96% | 1016 hPa | 0 mm | - | - | - |
| 1787875527 | 14.44° C | 95% | 1015.9 hPa | 0 mm | - | - | - |
| 1787874928 | 15° C | 94% | 1015.6 hPa | 0 mm | - | - | - |
| 1787874100 | 15° C | 92% | 1015.6 hPa | 0 mm | - | - | - |
| 1787873728 | 15.56° C | 93% | 1015.6 hPa | 0 mm | - | - | - |
| 1787873127 | 15° C | 92% | 1015.8 hPa | 0 mm | - | - | - |
* Rain latest hour (hover to see other rain measurements)
** Current wind speed in m/s (hover to see current wind gust speed)